Time;durP1;ratioP1;P1;durP2;ratioP2;P2;SDS_P1;SDS_P2;PMS_P1;PMS_P2;Temp;Humidity;BMP_temperature;BMP_pressure;BME280_temperature;BME280_humidity;BME280_pressure;Samples;Min_cycle;Max_cycle;Signal;HPM_P1;HPM_P2
2021/12/01 00:01:39;;;;;;;2.20;0.88;;;;;;;;;;4992711;28;20015;-76
2021/12/01 00:04:05;;;;;;;2.28;0.85;;;;;;;;;;4988798;28;20053;-76
2021/12/01 00:06:31;;;;;;;1.95;0.90;;;;;;;;;;4992972;28;20441;-78
2021/12/01 00:08:57;;;;;;;2.22;0.80;;;;;;;;;;4992343;28;20057;-78
2021/12/01 00:11:23;;;;;;;2.00;0.80;;;;;;;;;;4991330;28;20444;-76
2021/12/01 00:13:49;;;;;;;2.00;0.80;;;;;;;;;;4991226;28;20438;-76
2021/12/01 00:16:15;;;;;;;1.83;0.90;;;;;;;;;;4990116;28;20026;-76
2021/12/01 00:18:41;;;;;;;2.17;0.88;;;;;;;;;;4972401;28;20389;-78
2021/12/01 00:21:07;;;;;;;2.97;0.98;;;;;;;;;;4991491;28;20085;-77
2021/12/01 00:23:34;;;;;;;2.00;1.00;;;;;;;;;;4992311;28;20030;-76
2021/12/01 00:26:00;;;;;;;2.20;0.90;;;;;;;;;;4991935;28;20030;-76
2021/12/01 00:28:26;;;;;;;2.85;1.10;;;;;;;;;;4992101;28;20030;-76
2021/12/01 00:30:52;;;;;;;2.47;0.98;;;;;;;;;;4990986;28;20049;-77
2021/12/01 00:33:22;;;;;;;1.83;0.70;;;;;;;;;;4992132;28;20041;-77
2021/12/01 00:39:07;;;;;;;;;;;;;;;;;;4992190;28;20065;-76
2021/12/01 00:41:33;;;;;;;1.95;0.70;;;;;;;;;;4991322;28;19972;-76
2021/12/01 00:44:00;;;;;;;2.42;0.90;;;;;;;;;;4989919;28;20022;-76
2021/12/01 00:46:41;;;;;;;1.60;0.65;;;;;;;;;;4990394;28;20026;-76
2021/12/01 00:49:08;;;;;;;1.80;0.70;;;;;;;;;;4991181;28;20037;-76
2021/12/01 00:51:34;;;;;;;1.05;0.55;;;;;;;;;;4991046;28;20104;-76
2021/12/01 00:54:00;;;;;;;2.13;0.80;;;;;;;;;;4990317;28;20027;-76
2021/12/01 00:56:26;;;;;;;1.70;0.70;;;;;;;;;;4991096;28;20030;-76
2021/12/01 00:58:52;;;;;;;1.50;0.70;;;;;;;;;;4991188;28;20428;-76
2021/12/01 01:01:18;;;;;;;1.75;0.80;;;;;;;;;;4991515;28;20030;-76
2021/12/01 01:03:44;;;;;;;2.22;0.90;;;;;;;;;;4989933;28;20061;-75
2021/12/01 01:06:10;;;;;;;1.20;0.60;;;;;;;;;;4991359;28;20496;-76
2021/12/01 01:08:37;;;;;;;1.80;0.70;;;;;;;;;;4988591;28;20029;-76
2021/12/01 01:16:23;;;;;;;1.70;0.68;;;;;;;;;;4990620;28;20103;-76
2021/12/01 01:18:49;;;;;;;1.55;0.85;;;;;;;;;;4990469;28;20033;-75
2021/12/01 01:21:16;;;;;;;2.08;0.70;;;;;;;;;;4990902;28;20030;-76
2021/12/01 01:23:42;;;;;;;1.30;0.50;;;;;;;;;;4990689;28;20084;-76
2021/12/01 01:26:09;;;;;;;4.15;0.70;;;;;;;;;;4991385;28;20089;-76
2021/12/01 01:28:35;;;;;;;1.30;0.50;;;;;;;;;;4990152;28;20506;-76
2021/12/01 01:31:02;;;;;;;0.95;0.50;;;;;;;;;;4991273;28;20520;-76
2021/12/01 01:33:28;;;;;;;1.02;0.50;;;;;;;;;;4990387;28;20027;-77
2021/12/01 01:35:54;;;;;;;2.17;0.50;;;;;;;;;;4990438;28;20030;-76
2021/12/01 01:38:20;;;;;;;1.13;0.50;;;;;;;;;;4990635;28;20114;-76
2021/12/01 01:40:46;;;;;;;1.25;0.50;;;;;;;;;;4990333;28;20026;-77
2021/12/01 01:43:12;;;;;;;1.92;0.40;;;;;;;;;;4995157;28;20049;-76
2021/12/01 01:45:38;;;;;;;1.15;0.50;;;;;;;;;;4995610;28;20022;-76
2021/12/01 01:48:09;;;;;;;1.05;0.47;;;;;;;;;;4994549;28;20030;-77
2021/12/01 01:50:36;;;;;;;1.15;0.50;;;;;;;;;;4991227;28;20042;-77
2021/12/01 01:53:26;;;;;;;0.88;0.40;;;;;;;;;;4989876;28;20026;-77
2021/12/01 01:55:53;;;;;;;0.85;0.40;;;;;;;;;;4987680;28;20086;-76
2021/12/01 01:58:23;;;;;;;0.63;0.40;;;;;;;;;;4989299;28;20041;-79
2021/12/01 02:00:52;;;;;;;2.72;0.60;;;;;;;;;;4989802;28;20022;-76
2021/12/01 02:03:20;;;;;;;1.05;0.40;;;;;;;;;;4990854;28;20073;-76
2021/12/01 02:05:46;;;;;;;1.17;0.40;;;;;;;;;;4990784;28;20034;-76
2021/12/01 02:08:20;;;;;;;0.85;0.40;;;;;;;;;;4989868;28;20041;-77
2021/12/01 02:10:52;;;;;;;1.15;0.40;;;;;;;;;;4990699;28;20027;-76
2021/12/01 02:16:21;;;;;;;;;;;;;;;;;;4985252;28;20642;-78
2021/12/01 02:18:48;;;;;;;1.35;0.68;;;;;;;;;;4989477;28;19910;-76
2021/12/01 02:24:32;;;;;;;0.93;0.50;;;;;;;;;;4993878;28;20501;-76
2021/12/01 02:36:25;;;;;;;1.48;0.60;;;;;;;;;;4994408;28;20077;-77
2021/12/01 02:57:13;;;;;;;2.30;0.95;;;;;;;;;;4991091;28;20033;-76
2021/12/01 02:59:39;;;;;;;2.08;0.90;;;;;;;;;;4994222;28;20165;-78
2021/12/01 03:05:09;;;;;;;1.88;0.80;;;;;;;;;;4993634;28;20117;-77
2021/12/01 03:07:36;;;;;;;2.83;0.85;;;;;;;;;;4970434;28;20022;-76
2021/12/01 03:10:03;;;;;;;1.70;0.73;;;;;;;;;;4993216;28;20408;-76
2021/12/01 03:12:29;;;;;;;1.67;0.70;;;;;;;;;;4993412;28;20029;-78
2021/12/01 03:14:56;;;;;;;1.98;0.90;;;;;;;;;;4993533;28;20041;-76
2021/12/01 03:17:22;;;;;;;2.20;0.93;;;;;;;;;;4991164;28;20357;-77
2021/12/01 03:19:48;;;;;;;2.53;1.08;;;;;;;;;;4992673;28;20026;-77
2021/12/01 03:22:15;;;;;;;2.25;0.90;;;;;;;;;;4993454;28;20022;-77
2021/12/01 03:24:41;;;;;;;2.35;0.90;;;;;;;;;;4992956;28;20030;-77
2021/12/01 03:30:12;;;;;;;1.80;0.82;;;;;;;;;;4992617;28;20036;-77
2021/12/01 03:32:39;;;;;;;2.22;0.60;;;;;;;;;;4992481;28;20034;-77
2021/12/01 03:35:09;;;;;;;1.90;0.80;;;;;;;;;;4992333;28;20191;-76
2021/12/01 03:37:37;;;;;;;1.80;0.90;;;;;;;;;;4992939;28;20026;-76
2021/12/01 03:40:04;;;;;;;2.13;0.80;;;;;;;;;;5006754;28;20488;-77
2021/12/01 03:42:30;;;;;;;2.05;1.00;;;;;;;;;;4991539;28;20019;-77
2021/12/01 03:44:56;;;;;;;2.30;1.00;;;;;;;;;;4974994;28;20041;-77
2021/12/01 03:47:23;;;;;;;2.35;1.00;;;;;;;;;;4990878;28;20104;-77
2021/12/01 03:49:49;;;;;;;3.53;0.93;;;;;;;;;;4992880;28;20382;-76
2021/12/01 03:52:17;;;;;;;2.17;1.10;;;;;;;;;;4991344;28;20108;-76
2021/12/01 03:54:49;;;;;;;3.72;1.13;;;;;;;;;;4990959;28;20037;-76
2021/12/01 03:57:16;;;;;;;2.55;0.95;;;;;;;;;;4992964;28;20029;-76
2021/12/01 03:59:42;;;;;;;2.03;1.10;;;;;;;;;;4992045;28;20026;-76
2021/12/01 04:02:08;;;;;;;2.65;1.20;;;;;;;;;;4992071;28;20061;-76
2021/12/01 04:07:38;;;;;;;2.00;0.98;;;;;;;;;;4992414;28;20041;-76
2021/12/01 04:10:06;;;;;;;3.50;1.10;;;;;;;;;;4990174;28;20034;-77
2021/12/01 04:12:32;;;;;;;2.80;1.20;;;;;;;;;;4992308;28;20128;-77
2021/12/01 04:14:58;;;;;;;2.97;1.10;;;;;;;;;;4992258;28;20138;-76
2021/12/01 04:17:24;;;;;;;3.45;1.30;;;;;;;;;;4990498;28;20109;-76
2021/12/01 04:19:50;;;;;;;2.80;1.52;;;;;;;;;;4991523;28;20434;-76
2021/12/01 04:22:16;;;;;;;2.60;1.13;;;;;;;;;;4991113;28;20026;-76
2021/12/01 04:24:42;;;;;;;2.38;1.10;;;;;;;;;;4991492;28;20401;-77
2021/12/01 04:27:09;;;;;;;2.92;1.27;;;;;;;;;;4991985;28;20030;-76
2021/12/01 04:29:35;;;;;;;3.25;1.38;;;;;;;;;;4974097;28;20072;-77
2021/12/01 04:32:01;;;;;;;2.95;1.40;;;;;;;;;;4991302;28;20030;-76
2021/12/01 04:34:27;;;;;;;2.97;1.45;;;;;;;;;;4991842;28;20026;-76
2021/12/01 04:36:53;;;;;;;4.07;1.75;;;;;;;;;;4990507;28;20029;-76
2021/12/01 04:39:20;;;;;;;2.92;1.42;;;;;;;;;;4991328;28;20069;-76
2021/12/01 04:41:52;;;;;;;2.58;1.10;;;;;;;;;;4989944;28;20054;-77
2021/12/01 04:44:19;;;;;;;3.60;1.20;;;;;;;;;;4992001;28;20034;-76
2021/12/01 04:46:47;;;;;;;3.15;1.10;;;;;;;;;;4991203;28;20072;-76
2021/12/01 04:49:14;;;;;;;2.92;1.20;;;;;;;;;;4991684;28;20062;-76
2021/12/01 04:51:41;;;;;;;3.45;1.25;;;;;;;;;;4985527;28;20030;-76
2021/12/01 04:54:07;;;;;;;3.05;1.30;;;;;;;;;;4985554;28;20050;-77
2021/12/01 05:02:40;;;;;;;3.45;1.25;;;;;;;;;;4990372;28;20034;-77
2021/12/01 05:05:06;;;;;;;3.10;1.00;;;;;;;;;;4990940;28;20026;-76
2021/12/01 05:07:33;;;;;;;4.65;1.92;;;;;;;;;;4990401;28;20126;-76
2021/12/01 05:09:59;;;;;;;4.05;1.55;;;;;;;;;;4990768;28;20046;-76
2021/12/01 05:12:25;;;;;;;3.03;1.23;;;;;;;;;;4991164;28;20027;-76
2021/12/01 05:14:51;;;;;;;2.42;0.90;;;;;;;;;;4991265;28;20057;-77
2021/12/01 05:20:04;;;;;;;2.65;1.00;;;;;;;;;;3755870;28;20081;-79
2021/12/01 05:22:30;;;;;;;3.28;1.10;;;;;;;;;;4997387;28;20503;-80
2021/12/01 05:24:56;;;;;;;2.92;1.20;;;;;;;;;;4995490;28;20076;-80
2021/12/01 05:27:23;;;;;;;2.72;1.10;;;;;;;;;;4997724;28;20030;-79
2021/12/01 05:29:49;;;;;;;2.15;0.82;;;;;;;;;;5018988;28;20018;-79
2021/12/01 05:32:15;;;;;;;2.92;1.10;;;;;;;;;;5016971;28;20117;-79
2021/12/01 05:34:41;;;;;;;3.72;1.48;;;;;;;;;;5034482;28;20071;-79
2021/12/01 05:37:07;;;;;;;2.80;1.13;;;;;;;;;;5017371;28;20033;-81
2021/12/01 05:39:34;;;;;;;3.03;1.17;;;;;;;;;;5027042;28;20388;-79
2021/12/01 05:42:00;;;;;;;3.03;1.00;;;;;;;;;;5034265;28;20021;-80
2021/12/01 05:44:29;;;;;;;3.45;1.00;;;;;;;;;;5004571;28;20022;-79
2021/12/01 05:46:55;;;;;;;3.13;1.35;;;;;;;;;;4997519;28;20085;-80
2021/12/01 05:49:21;;;;;;;2.33;1.05;;;;;;;;;;5001876;28;20029;-80
2021/12/01 05:51:47;;;;;;;4.85;1.58;;;;;;;;;;5015668;28;20363;-80
2021/12/01 05:54:13;;;;;;;5.35;1.92;;;;;;;;;;4998791;28;20026;-80
2021/12/01 05:56:39;;;;;;;2.83;1.27;;;;;;;;;;5023955;28;20478;-80
2021/12/01 05:59:05;;;;;;;3.80;1.30;;;;;;;;;;5005566;28;20108;-79
2021/12/01 06:01:32;;;;;;;3.00;1.35;;;;;;;;;;5020657;28;20030;-80
2021/12/01 06:03:58;;;;;;;3.47;1.42;;;;;;;;;;5033174;28;20033;-80
2021/12/01 06:06:24;;;;;;;3.38;1.20;;;;;;;;;;5020450;28;20033;-80
2021/12/01 06:08:50;;;;;;;3.20;1.30;;;;;;;;;;5002895;28;20026;-80
2021/12/01 06:14:19;;;;;;;;;;;;;;;;;;5017839;28;20065;-79
2021/12/01 06:16:46;;;;;;;4.28;1.48;;;;;;;;;;5019373;28;19905;-78
2021/12/01 06:19:12;;;;;;;3.50;1.60;;;;;;;;;;5018196;28;20025;-79
2021/12/01 06:21:38;;;;;;;3.10;1.30;;;;;;;;;;5017722;28;20518;-78
2021/12/01 06:24:04;;;;;;;3.63;1.50;;;;;;;;;;5018396;28;20487;-79
2021/12/01 06:26:30;;;;;;;3.10;1.40;;;;;;;;;;5003103;28;20181;-79
2021/12/01 06:28:56;;;;;;;3.42;1.42;;;;;;;;;;5006298;28;20037;-79
2021/12/01 06:31:22;;;;;;;3.45;1.30;;;;;;;;;;5019436;28;20021;-79
2021/12/01 06:33:48;;;;;;;2.35;1.30;;;;;;;;;;5007161;28;20026;-79
2021/12/01 06:36:15;;;;;;;2.97;1.40;;;;;;;;;;5009806;28;20101;-79
2021/12/01 06:38:41;;;;;;;4.10;2.00;;;;;;;;;;5024995;28;20024;-79
2021/12/01 06:41:08;;;;;;;3.13;1.40;;;;;;;;;;5006180;28;20437;-79
2021/12/01 06:43:34;;;;;;;3.28;1.65;;;;;;;;;;5021451;28;20068;-79
2021/12/01 06:46:00;;;;;;;2.72;1.30;;;;;;;;;;4992064;28;20023;-80
2021/12/01 06:48:26;;;;;;;3.38;1.60;;;;;;;;;;5020176;28;20064;-79
2021/12/01 06:50:53;;;;;;;3.30;1.40;;;;;;;;;;5004297;28;20033;-78
2021/12/01 06:53:19;;;;;;;4.15;1.60;;;;;;;;;;5018346;28;20025;-78
2021/12/01 06:55:45;;;;;;;2.92;1.23;;;;;;;;;;5018141;28;20037;-79
2021/12/01 06:58:12;;;;;;;3.08;1.17;;;;;;;;;;4999124;28;20558;-79
2021/12/01 07:00:38;;;;;;;3.05;1.40;;;;;;;;;;5016799;28;20495;-79
2021/12/01 07:03:04;;;;;;;2.88;1.10;;;;;;;;;;5007017;28;20102;-77
2021/12/01 07:05:30;;;;;;;3.70;1.80;;;;;;;;;;5000433;28;20092;-79
2021/12/01 07:07:56;;;;;;;2.45;1.05;;;;;;;;;;5005790;28;20034;-79
2021/12/01 07:10:23;;;;;;;3.30;1.52;;;;;;;;;;5024785;28;20137;-79
2021/12/01 07:12:49;;;;;;;2.30;1.10;;;;;;;;;;5019885;28;20029;-79
2021/12/01 07:15:15;;;;;;;2.75;1.15;;;;;;;;;;5001252;28;20022;-80
2021/12/01 07:17:42;;;;;;;1.90;0.90;;;;;;;;;;5020256;28;20033;-79
2021/12/01 07:20:09;;;;;;;2.85;1.15;;;;;;;;;;5021746;28;20104;-79
2021/12/01 07:22:35;;;;;;;2.55;1.00;;;;;;;;;;5011996;28;20022;-79
2021/12/01 07:25:01;;;;;;;2.60;1.10;;;;;;;;;;5017131;28;20034;-79
2021/12/01 07:27:27;;;;;;;2.38;1.20;;;;;;;;;;5021181;28;20487;-78
2021/12/01 07:29:53;;;;;;;2.55;1.05;;;;;;;;;;5020862;28;20395;-78
2021/12/01 07:32:19;;;;;;;2.70;1.42;;;;;;;;;;5003123;28;20026;-79
2021/12/01 07:34:45;;;;;;;3.17;1.10;;;;;;;;;;5012227;28;20361;-79
2021/12/01 07:37:16;;;;;;;2.83;1.15;;;;;;;;;;5008906;28;20467;-78
2021/12/01 07:39:43;;;;;;;3.05;1.23;;;;;;;;;;5020031;28;20026;-81
2021/12/01 07:42:09;;;;;;;2.40;1.08;;;;;;;;;;5019868;28;20030;-78
2021/12/01 07:44:35;;;;;;;1.98;0.90;;;;;;;;;;5008027;28;20033;-79
2021/12/01 07:47:06;;;;;;;2.40;1.10;;;;;;;;;;5024661;28;20033;-80
2021/12/01 07:49:32;;;;;;;2.72;1.10;;;;;;;;;;5025976;28;20387;-80
2021/12/01 07:51:58;;;;;;;1.92;0.90;;;;;;;;;;5021389;28;20037;-82
2021/12/01 07:54:24;;;;;;;1.60;0.80;;;;;;;;;;5018443;28;20025;-80
2021/12/01 07:56:51;;;;;;;1.92;0.82;;;;;;;;;;4999007;28;20109;-80
2021/12/01 07:59:17;;;;;;;2.08;0.90;;;;;;;;;;4999280;28;20018;-80
2021/12/01 08:04:47;;;;;;;1.27;0.70;;;;;;;;;;5034884;28;20036;-79
2021/12/01 08:07:13;;;;;;;1.45;0.70;;;;;;;;;;5018643;28;20030;-79
2021/12/01 08:09:39;;;;;;;2.55;1.00;;;;;;;;;;5018539;28;20028;-80
2021/12/01 08:12:07;;;;;;;2.10;0.80;;;;;;;;;;5018490;28;20068;-79
2021/12/01 08:14:33;;;;;;;2.30;0.90;;;;;;;;;;5025729;28;20026;-79
2021/12/01 08:16:59;;;;;;;2.30;0.93;;;;;;;;;;4998457;28;20030;-79
2021/12/01 08:19:25;;;;;;;1.98;0.70;;;;;;;;;;4998774;28;20087;-79
2021/12/01 08:21:51;;;;;;;1.77;0.75;;;;;;;;;;4998241;28;20049;-79
2021/12/01 08:24:19;;;;;;;2.22;0.80;;;;;;;;;;5015830;28;20030;-80
2021/12/01 08:29:49;;;;;;;1.67;0.80;;;;;;;;;;5015732;28;20048;-79
2021/12/01 08:32:15;;;;;;;1.77;0.70;;;;;;;;;;5016139;28;20029;-79
2021/12/01 08:34:41;;;;;;;1.70;0.65;;;;;;;;;;5017785;28;20517;-78
2021/12/01 08:37:08;;;;;;;1.60;0.75;;;;;;;;;;5015275;28;20443;-78
2021/12/01 08:39:35;;;;;;;1.83;0.80;;;;;;;;;;4997701;28;20026;-79
2021/12/01 08:42:01;;;;;;;2.17;0.70;;;;;;;;;;4997860;28;20480;-79
2021/12/01 08:44:27;;;;;;;1.83;0.77;;;;;;;;;;5017258;28;20037;-79
2021/12/01 08:46:54;;;;;;;3.33;1.20;;;;;;;;;;4998177;28;20033;-79
2021/12/01 08:49:20;;;;;;;2.65;1.10;;;;;;;;;;4997936;28;20030;-78
2021/12/01 08:51:46;;;;;;;3.40;1.27;;;;;;;;;;4997906;28;20030;-79
2021/12/01 08:54:13;;;;;;;3.45;1.20;;;;;;;;;;5015449;28;20052;-79
2021/12/01 08:56:41;;;;;;;8.07;2.10;;;;;;;;;;5011052;28;20407;-79
2021/12/01 08:59:07;;;;;;;6.13;1.80;;;;;;;;;;5014976;28;20487;-78
2021/12/01 09:01:33;;;;;;;2.15;0.90;;;;;;;;;;5015356;28;20061;-79
2021/12/01 09:04:00;;;;;;;2.05;0.80;;;;;;;;;;4997854;28;20025;-79
2021/12/01 09:06:26;;;;;;;5.10;1.55;;;;;;;;;;5009485;28;20061;-79
2021/12/01 09:08:52;;;;;;;4.20;1.10;;;;;;;;;;5015288;28;20132;-79
2021/12/01 09:11:18;;;;;;;2.17;0.80;;;;;;;;;;4997609;28;20072;-79
2021/12/01 09:13:44;;;;;;;3.65;0.93;;;;;;;;;;5014873;28;20160;-79
2021/12/01 09:16:10;;;;;;;2.20;0.60;;;;;;;;;;5012600;28;20033;-79
2021/12/01 09:18:37;;;;;;;2.13;0.75;;;;;;;;;;4994676;28;20022;-79
2021/12/01 09:21:03;;;;;;;2.15;0.80;;;;;;;;;;4995065;28;20193;-79
2021/12/01 09:23:29;;;;;;;1.25;0.50;;;;;;;;;;4995850;28;20022;-78
2021/12/01 09:25:55;;;;;;;1.20;0.68;;;;;;;;;;4985494;28;20053;-79
2021/12/01 09:28:23;;;;;;;2.03;0.80;;;;;;;;;;5015023;28;20137;-79
2021/12/01 09:30:50;;;;;;;4.57;0.93;;;;;;;;;;5017171;28;20021;-78
2021/12/01 09:33:16;;;;;;;3.05;1.05;;;;;;;;;;5034913;28;20161;-80
2021/12/01 09:35:43;;;;;;;2.42;0.80;;;;;;;;;;5006799;28;20108;-78
2021/12/01 09:38:13;;;;;;;2.17;0.90;;;;;;;;;;5000906;28;20013;-79
2021/12/01 09:40:40;;;;;;;1.73;0.70;;;;;;;;;;4986800;28;20022;-79
2021/12/01 09:43:06;;;;;;;1.48;0.70;;;;;;;;;;4991722;28;20033;-80
2021/12/01 09:45:32;;;;;;;3.20;1.10;;;;;;;;;;5001583;28;20064;-78
2021/12/01 09:47:58;;;;;;;1.75;0.70;;;;;;;;;;5016919;28;20442;-79
2021/12/01 09:50:24;;;;;;;2.15;0.82;;;;;;;;;;5014832;28;20034;-79
2021/12/01 09:52:50;;;;;;;1.20;0.70;;;;;;;;;;5015303;28;20030;-79
2021/12/01 09:55:17;;;;;;;3.03;1.15;;;;;;;;;;5021250;28;20272;-79
2021/12/01 09:58:16;;;;;;;2.50;0.80;;;;;;;;;;5016001;28;20017;-79
2021/12/01 10:00:44;;;;;;;1.33;0.63;;;;;;;;;;4919485;29;20418;-79
2021/12/01 10:03:10;;;;;;;2.05;0.75;;;;;;;;;;4933836;29;20036;-79
2021/12/01 10:05:51;;;;;;;2.25;0.80;;;;;;;;;;4934239;29;20028;-79
2021/12/01 10:08:22;;;;;;;2.17;0.50;;;;;;;;;;4934790;29;20069;-80
2021/12/01 10:10:48;;;;;;;3.17;0.82;;;;;;;;;;4934586;29;20135;-79
2021/12/01 10:13:16;;;;;;;1.92;0.70;;;;;;;;;;4931618;29;20024;-80
2021/12/01 10:15:42;;;;;;;2.28;0.80;;;;;;;;;;4915443;29;20040;-79
2021/12/01 10:18:15;;;;;;;2.17;0.77;;;;;;;;;;4915475;29;20024;-80
2021/12/01 10:20:43;;;;;;;1.90;0.77;;;;;;;;;;4932443;29;20055;-79
2021/12/01 10:23:13;;;;;;;1.35;0.65;;;;;;;;;;4933955;29;20067;-80
2021/12/01 10:25:40;;;;;;;3.95;1.33;;;;;;;;;;4934955;29;20070;-79
2021/12/01 10:28:06;;;;;;;2.38;0.82;;;;;;;;;;4934561;29;20024;-79
2021/12/01 10:30:37;;;;;;;3.38;1.10;;;;;;;;;;4934155;29;20043;-78
2021/12/01 10:33:10;;;;;;;1.38;0.60;;;;;;;;;;4932525;29;20557;-78
2021/12/01 10:35:36;;;;;;;3.05;0.80;;;;;;;;;;4947848;28;20036;-78
2021/12/01 10:38:04;;;;;;;1.88;0.80;;;;;;;;;;5013705;28;20033;-79
2021/12/01 10:40:30;;;;;;;1.48;0.60;;;;;;;;;;4997435;28;20026;-79
2021/12/01 10:42:56;;;;;;;1.95;0.70;;;;;;;;;;5000829;28;20030;-79
2021/12/01 10:45:24;;;;;;;2.85;1.15;;;;;;;;;;5000663;28;20056;-80
2021/12/01 10:47:50;;;;;;;2.35;0.90;;;;;;;;;;4998564;28;20037;-78
2021/12/01 10:50:17;;;;;;;1.63;0.80;;;;;;;;;;5015843;28;20026;-78
2021/12/01 10:52:50;;;;;;;2.65;1.00;;;;;;;;;;4998264;28;20025;-80
2021/12/01 10:55:17;;;;;;;4.88;0.90;;;;;;;;;;5016977;28;20038;-78
2021/12/01 10:57:47;;;;;;;1.90;0.70;;;;;;;;;;4997246;28;20052;-78
2021/12/01 11:00:14;;;;;;;2.47;0.80;;;;;;;;;;5000624;28;20025;-78
2021/12/01 11:02:41;;;;;;;2.25;0.70;;;;;;;;;;5024361;28;20026;-78
2021/12/01 11:05:07;;;;;;;2.90;0.93;;;;;;;;;;5033888;28;20029;-77
2021/12/01 11:07:34;;;;;;;4.22;1.60;;;;;;;;;;5030539;28;20073;-79
2021/12/01 11:10:10;;;;;;;2.22;0.95;;;;;;;;;;5012034;28;20083;-79
2021/12/01 11:12:36;;;;;;;3.00;0.95;;;;;;;;;;5027552;28;20018;-79
2021/12/01 11:15:17;;;;;;;2.88;1.10;;;;;;;;;;4999472;28;20025;-79
2021/12/01 11:17:44;;;;;;;3.42;1.50;;;;;;;;;;5016604;28;20072;-79
2021/12/01 11:23:15;;;;;;;2.58;0.98;;;;;;;;;;4466756;28;20088;-79
2021/12/01 11:25:41;;;;;;;4.25;1.95;;;;;;;;;;5021157;28;20068;-79
2021/12/01 11:28:09;;;;;;;5.85;2.17;;;;;;;;;;4998901;28;20029;-79
2021/12/01 11:36:42;;;;;;;;;;;;;;;;;;5029543;28;20025;-79
2021/12/01 11:39:10;;;;;;;4.53;2.30;;;;;;;;;;5018110;28;20293;-79
2021/12/01 11:41:41;;;;;;;4.28;2.10;;;;;;;;;;5036028;28;20017;-79
2021/12/01 11:44:07;;;;;;;5.18;1.98;;;;;;;;;;5002226;28;20056;-79
2021/12/01 11:46:34;;;;;;;6.70;2.58;;;;;;;;;;5020954;28;20084;-79
2021/12/01 11:49:01;;;;;;;5.35;2.40;;;;;;;;;;5021462;28;20041;-79
2021/12/01 11:51:27;;;;;;;4.50;2.10;;;;;;;;;;5025982;28;20045;-79
2021/12/01 11:53:55;;;;;;;3.88;1.70;;;;;;;;;;5017385;28;20049;-78
2021/12/01 11:56:29;;;;;;;4.35;1.90;;;;;;;;;;4998099;28;20030;-79
2021/12/01 11:58:57;;;;;;;5.20;2.67;;;;;;;;;;5016247;28;20026;-79
2021/12/01 12:01:23;;;;;;;5.30;3.05;;;;;;;;;;4997859;28;20021;-79
2021/12/01 12:03:55;;;;;;;6.20;2.80;;;;;;;;;;5005716;28;20034;-80
2021/12/01 12:06:24;;;;;;;4.32;2.50;;;;;;;;;;5016224;28;20040;-79
2021/12/01 12:08:56;;;;;;;4.15;2.13;;;;;;;;;;5000463;28;20060;-79
2021/12/01 12:11:35;;;;;;;7.28;2.70;;;;;;;;;;5016340;28;20390;-79
2021/12/01 12:14:03;;;;;;;5.28;2.92;;;;;;;;;;5026688;28;20033;-79
2021/12/01 12:16:29;;;;;;;4.22;2.00;;;;;;;;;;5026884;28;20109;-79
2021/12/01 12:18:56;;;;;;;4.85;1.80;;;;;;;;;;5018973;28;20021;-79
2021/12/01 12:21:45;;;;;;;4.50;1.80;;;;;;;;;;5015099;28;20033;-79
2021/12/01 12:24:14;;;;;;;3.95;2.10;;;;;;;;;;5020974;28;20046;-79
2021/12/01 12:26:44;;;;;;;4.78;2.15;;;;;;;;;;5032675;28;20033;-79
2021/12/01 12:29:13;;;;;;;3.78;1.60;;;;;;;;;;5015944;28;20128;-79
2021/12/01 12:31:39;;;;;;;4.30;2.38;;;;;;;;;;5015069;28;20469;-78
2021/12/01 12:34:09;;;;;;;4.97;1.92;;;;;;;;;;5027670;28;20044;-78
2021/12/01 12:36:40;;;;;;;4.95;2.13;;;;;;;;;;5015403;28;20073;-79
2021/12/01 12:39:09;;;;;;;4.30;2.00;;;;;;;;;;5020084;28;20491;-78
2021/12/01 12:41:54;;;;;;;4.93;2.05;;;;;;;;;;5032366;28;20030;-78
2021/12/01 12:44:39;;;;;;;4.78;1.70;;;;;;;;;;5029276;28;20098;-78
2021/12/01 12:47:05;;;;;;;5.40;2.33;;;;;;;;;;5010328;28;20060;-79
2021/12/01 12:49:38;;;;;;;5.18;2.42;;;;;;;;;;5032185;28;20506;-78
2021/12/01 12:52:23;;;;;;;4.90;2.20;;;;;;;;;;5015009;28;20301;-79
2021/12/01 12:54:49;;;;;;;6.38;3.13;;;;;;;;;;5021382;28;20022;-79
2021/12/01 12:57:16;;;;;;;4.80;2.40;;;;;;;;;;5026794;28;20029;-78
2021/12/01 12:59:42;;;;;;;4.80;2.92;;;;;;;;;;5025847;28;20089;-78
2021/12/01 13:02:11;;;;;;;5.18;2.13;;;;;;;;;;4999459;28;20467;-78
2021/12/01 13:04:54;;;;;;;5.00;2.50;;;;;;;;;;4994738;28;20121;-78
2021/12/01 13:07:32;;;;;;;4.50;2.15;;;;;;;;;;5029383;28;20032;-78
2021/12/01 13:10:05;;;;;;;4.78;2.72;;;;;;;;;;5014523;28;20040;-78
2021/12/01 13:12:43;;;;;;;4.88;2.50;;;;;;;;;;5006045;28;20051;-78
2021/12/01 13:15:17;;;;;;;5.22;2.85;;;;;;;;;;5005856;28;20032;-79
2021/12/01 13:17:50;;;;;;;6.85;3.83;;;;;;;;;;4991969;28;20399;-78
2021/12/01 13:20:17;;;;;;;5.85;3.58;;;;;;;;;;5004181;28;20054;-79
2021/12/01 13:22:59;;;;;;;5.97;3.10;;;;;;;;;;4993673;28;20476;-78
2021/12/01 13:25:25;;;;;;;6.80;3.25;;;;;;;;;;5000390;28;20030;-78
2021/12/01 13:27:51;;;;;;;6.10;3.08;;;;;;;;;;5031373;28;20075;-78
2021/12/01 13:30:17;;;;;;;7.93;4.07;;;;;;;;;;5026735;28;20430;-78
2021/12/01 13:32:42;;;;;;;4.97;2.72;;;;;;;;;;5030514;28;20083;-78
2021/12/01 13:35:09;;;;;;;6.85;1.98;;;;;;;;;;5019817;28;20034;-78
2021/12/01 13:37:35;;;;;;;6.32;2.38;;;;;;;;;;4990629;28;20026;-78
2021/12/01 13:40:07;;;;;;;4.65;2.30;;;;;;;;;;4991592;28;20076;-78
2021/12/01 13:42:33;;;;;;;4.97;2.65;;;;;;;;;;5004893;28;20419;-78
2021/12/01 13:44:59;;;;;;;4.63;2.30;;;;;;;;;;4994113;28;20133;-78
2021/12/01 13:47:26;;;;;;;4.82;2.45;;;;;;;;;;4999280;28;20105;-78
2021/12/01 13:50:00;;;;;;;4.75;2.60;;;;;;;;;;5008548;28;20030;-78
2021/12/01 13:52:44;;;;;;;6.57;3.90;;;;;;;;;;5006915;28;20025;-78
2021/12/01 13:55:16;;;;;;;6.43;3.88;;;;;;;;;;5009992;28;20026;-78
2021/12/01 13:57:42;;;;;;;5.50;3.13;;;;;;;;;;5010127;28;20076;-78
2021/12/01 14:00:09;;;;;;;5.85;2.85;;;;;;;;;;5016563;28;20399;-79
2021/12/01 14:02:35;;;;;;;5.35;2.78;;;;;;;;;;5030606;28;20021;-78
2021/12/01 14:05:02;;;;;;;5.28;3.00;;;;;;;;;;4998312;28;20034;-78
2021/12/01 14:07:42;;;;;;;6.57;3.22;;;;;;;;;;5010693;28;20101;-78
2021/12/01 14:10:10;;;;;;;6.32;3.10;;;;;;;;;;4992330;28;20553;-78
2021/12/01 14:13:08;;;;;;;6.95;3.13;;;;;;;;;;5005415;28;20029;-78
2021/12/01 14:15:39;;;;;;;5.63;3.33;;;;;;;;;;4930318;29;20043;-79
2021/12/01 14:18:06;;;;;;;6.78;3.10;;;;;;;;;;4933042;29;20052;-78
2021/12/01 14:20:32;;;;;;;9.63;4.25;;;;;;;;;;4935023;29;20386;-78
2021/12/01 14:22:59;;;;;;;6.82;3.55;;;;;;;;;;4932200;29;20086;-79
2021/12/01 14:25:26;;;;;;;8.02;3.83;;;;;;;;;;4935121;29;20478;-78
2021/12/01 14:28:02;;;;;;;8.25;3.60;;;;;;;;;;4935089;29;20039;-78
2021/12/01 14:30:28;;;;;;;7.65;3.78;;;;;;;;;;4948767;29;20039;-78
2021/12/01 14:32:54;;;;;;;7.75;3.70;;;;;;;;;;4937227;29;20120;-78
2021/12/01 14:35:21;;;;;;;7.97;3.10;;;;;;;;;;4935047;29;20509;-79
2021/12/01 14:37:47;;;;;;;6.47;3.10;;;;;;;;;;4935016;29;20032;-79
2021/12/01 14:40:14;;;;;;;6.63;3.40;;;;;;;;;;4945933;28;20110;-79
2021/12/01 14:42:48;;;;;;;6.03;2.80;;;;;;;;;;4939362;29;20040;-78
2021/12/01 14:45:15;;;;;;;6.38;3.20;;;;;;;;;;4935030;29;20036;-78
2021/12/01 14:47:41;;;;;;;9.00;4.10;;;;;;;;;;4934813;29;20040;-79
2021/12/01 14:50:07;;;;;;;10.80;4.57;;;;;;;;;;4923226;28;20083;-78
2021/12/01 14:52:36;;;;;;;8.82;4.07;;;;;;;;;;5025487;28;20025;-78
2021/12/01 14:55:07;;;;;;;9.60;4.78;;;;;;;;;;5034034;28;20494;-78
2021/12/01 14:57:35;;;;;;;8.50;5.15;;;;;;;;;;5034145;28;20017;-79
2021/12/01 15:00:02;;;;;;;14.77;6.32;;;;;;;;;;5015679;28;20017;-78
2021/12/01 15:02:28;;;;;;;13.27;6.47;;;;;;;;;;5020915;28;20022;-78
2021/12/01 15:05:03;;;;;;;9.65;5.72;;;;;;;;;;5014451;28;20084;-79
2021/12/01 15:07:29;;;;;;;18.02;7.57;;;;;;;;;;5014137;28;20287;-79
2021/12/01 15:10:07;;;;;;;19.92;9.68;;;;;;;;;;5015011;28;20422;-79
2021/12/01 15:12:33;;;;;;;12.40;6.75;;;;;;;;;;5010786;28;20032;-79
2021/12/01 15:14:59;;;;;;;11.20;5.85;;;;;;;;;;5000348;28;20077;-78
2021/12/01 15:17:26;;;;;;;9.98;5.07;;;;;;;;;;5030634;28;20068;-77
2021/12/01 15:20:04;;;;;;;8.25;4.72;;;;;;;;;;5034590;28;20456;-77
2021/12/01 15:22:30;;;;;;;9.45;4.88;;;;;;;;;;5020130;28;20057;-78
2021/12/01 15:24:56;;;;;;;9.15;5.53;;;;;;;;;;4995969;28;20022;-77
2021/12/01 15:27:22;;;;;;;9.15;4.90;;;;;;;;;;4995107;28;20075;-78
2021/12/01 15:29:48;;;;;;;7.70;4.43;;;;;;;;;;5016279;28;20025;-77
2021/12/01 15:32:14;;;;;;;9.52;4.93;;;;;;;;;;5004665;28;20514;-78
2021/12/01 15:34:40;;;;;;;9.88;5.28;;;;;;;;;;5013309;28;20030;-78
2021/12/01 15:37:07;;;;;;;7.68;4.78;;;;;;;;;;5013499;28;20117;-78
2021/12/01 15:39:34;;;;;;;9.77;5.65;;;;;;;;;;5021916;28;20374;-78
2021/12/01 15:42:02;;;;;;;8.45;5.53;;;;;;;;;;5034470;28;20066;-78
2021/12/01 15:44:29;;;;;;;16.25;7.53;;;;;;;;;;5032379;28;20033;-77
2021/12/01 15:46:55;;;;;;;8.82;6.32;;;;;;;;;;5015771;28;20045;-77
2021/12/01 15:49:22;;;;;;;11.45;6.70;;;;;;;;;;5009264;28;20059;-78
2021/12/01 15:51:48;;;;;;;9.75;5.80;;;;;;;;;;4995878;28;20040;-77
2021/12/01 15:54:16;;;;;;;8.95;6.18;;;;;;;;;;5013453;28;20045;-77
2021/12/01 15:56:42;;;;;;;13.00;6.68;;;;;;;;;;5013656;28;20129;-79
2021/12/01 15:59:09;;;;;;;8.60;5.72;;;;;;;;;;4996514;28;20022;-78
2021/12/01 16:01:35;;;;;;;9.68;6.78;;;;;;;;;;5012765;28;20072;-78
2021/12/01 16:04:01;;;;;;;14.55;7.00;;;;;;;;;;4995643;28;20021;-78
2021/12/01 16:06:27;;;;;;;9.88;6.47;;;;;;;;;;4995369;28;20049;-78